createdAt,value
2022-11-17T13:04:24.722Z,29.92
2022-11-17T13:07:08.140Z,19.60
2022-11-17T13:09:36.309Z,22.38
2022-11-17T13:12:07.703Z,18.58
2022-11-17T13:14:35.930Z,22.67
2022-11-17T13:17:02.941Z,25.85
2022-11-17T13:19:33.021Z,21.80
2022-11-17T13:22:13.723Z,21.83
2022-11-17T13:24:41.988Z,19.73
2022-11-17T13:27:27.289Z,15.38
2022-11-17T13:30:12.664Z,16.55
2022-11-17T13:32:40.327Z,23.85
2022-11-17T13:35:23.274Z,17.48
2022-11-17T13:38:06.621Z,16.80
2022-11-17T13:40:34.891Z,20.23
2022-11-17T13:43:03.284Z,19.30
2022-11-17T13:45:29.954Z,19.77
2022-11-17T13:47:58.229Z,17.92
2022-11-17T13:50:27.557Z,20.48
2022-11-17T13:52:56.080Z,20.90
2022-11-17T13:55:24.051Z,20.77
2022-11-17T13:58:26.902Z,19.30
2022-11-17T14:00:57.207Z,17.95
2022-11-17T14:03:37.135Z,15.57
2022-11-17T14:06:13.849Z,18.25
2022-11-17T14:08:42.828Z,17.73
2022-11-17T14:11:12.334Z,20.95
2022-11-17T14:13:43.368Z,17.30
2022-11-17T14:16:21.523Z,19.48
2022-11-17T14:19:02.840Z,18.35
2022-11-17T14:21:30.456Z,23.75
2022-11-17T14:24:11.400Z,19.75
2022-11-17T14:26:44.646Z,19.38
2022-11-17T14:29:12.632Z,23.42
2022-11-17T14:31:39.191Z,17.90
2022-11-17T14:34:05.717Z,18.42
2022-11-17T14:36:32.631Z,22.45
2022-11-17T14:39:00.688Z,21.70
2022-11-17T14:41:27.243Z,22.10
2022-11-17T14:43:53.797Z,20.92
2022-11-17T14:46:26.872Z,18.05
2022-11-17T14:48:54.086Z,19.52
2022-11-17T14:51:21.267Z,25.60
2022-11-17T14:53:48.178Z,20.17
2022-11-17T14:56:17.727Z,19.73
2022-11-17T14:58:45.158Z,19.52
2022-11-17T15:01:15.555Z,17.80
2022-11-17T15:03:42.083Z,17.02
2022-11-17T15:06:09.545Z,20.17
2022-11-17T15:08:36.707Z,21.08
2022-11-17T15:11:04.086Z,18.15
2022-11-17T15:13:31.126Z,21.35
2022-11-17T15:16:05.053Z,20.17
2022-11-17T15:18:32.191Z,20.77
2022-11-17T15:21:04.694Z,18.38
2022-11-17T15:23:31.762Z,17.30
2022-11-17T15:25:58.618Z,21.40
2022-11-17T15:28:29.089Z,19.48
2022-11-17T15:30:57.043Z,20.63
2022-11-17T15:33:23.912Z,20.70
2022-11-17T15:36:03.641Z,23.08
2022-11-17T15:38:31.458Z,20.25
2022-11-17T15:40:57.999Z,20.50
2022-11-17T15:43:32.405Z,15.95
2022-11-17T15:46:06.768Z,17.35
2022-11-17T15:48:34.558Z,14.95
2022-11-17T15:51:05.130Z,20.52
2022-11-17T15:53:32.943Z,21.63
2022-11-17T15:56:08.206Z,20.45
2022-11-17T15:58:34.935Z,21.27
2022-11-17T16:01:28.366Z,21.08
2022-11-17T16:04:00.855Z,23.35
2022-11-17T16:06:28.430Z,17.50
2022-11-17T16:08:54.991Z,20.30
2022-11-17T16:11:21.917Z,17.10
2022-11-17T16:13:48.469Z,16.92
2022-11-17T16:16:15.706Z,21.73
2022-11-17T16:18:48.184Z,21.60
2022-11-17T16:21:15.599Z,18.95
2022-11-17T16:23:44.389Z,19.10
2022-11-17T16:26:12.031Z,17.00
2022-11-17T16:28:39.089Z,21.35
2022-11-17T16:31:22.741Z,19.88
2022-11-17T16:33:54.490Z,21.50
2022-11-17T16:36:23.568Z,22.02
2022-11-17T16:39:01.882Z,25.85
2022-11-17T16:41:31.892Z,18.70
2022-11-17T16:43:58.632Z,22.65
2022-11-17T16:46:29.057Z,23.90
2022-11-17T16:48:56.465Z,21.38
2022-11-17T16:51:23.034Z,19.48
2022-11-17T16:53:55.832Z,19.92
2022-11-17T16:56:22.434Z,21.10
2022-11-17T16:58:50.041Z,21.95
2022-11-17T17:01:18.916Z,23.90
2022-11-17T17:03:45.687Z,23.42
2022-11-17T17:06:14.241Z,24.33
2022-11-17T17:08:41.113Z,21.85
2022-11-17T17:11:16.101Z,28.55
2022-11-17T17:13:43.222Z,22.00
2022-11-17T17:16:12.122Z,23.45
2022-11-17T17:18:39.065Z,24.75
2022-11-17T17:21:06.448Z,24.60
2022-11-17T17:23:34.384Z,19.25
2022-11-17T17:26:08.339Z,23.30
2022-11-17T17:28:36.866Z,26.25
2022-11-17T17:31:04.251Z,26.90
2022-11-17T17:33:32.527Z,20.85
2022-11-17T17:36:07.324Z,22.42
2022-11-17T17:38:34.032Z,23.13
2022-11-17T17:41:08.299Z,23.52
2022-11-17T17:43:35.378Z,22.02
2022-11-17T17:46:02.982Z,23.63
2022-11-17T17:48:33.725Z,16.50
2022-11-17T17:51:04.732Z,21.48
2022-11-17T17:53:31.685Z,20.17
2022-11-17T17:55:59.622Z,25.20
2022-11-17T17:58:26.175Z,19.55
2022-11-17T18:00:52.872Z,24.00
2022-11-17T18:03:19.479Z,20.80
2022-11-17T18:05:46.691Z,22.25
2022-11-17T18:08:13.234Z,21.85
2022-11-17T18:10:39.878Z,21.98
2022-11-17T18:13:10.608Z,26.15
2022-11-17T18:15:39.583Z,24.17
2022-11-17T18:18:06.314Z,27.20
2022-11-17T18:20:32.858Z,24.20
2022-11-17T18:22:59.403Z,26.17
2022-11-17T18:25:25.918Z,19.88
2022-11-17T18:27:52.455Z,21.25
2022-11-17T18:30:19.075Z,23.05
2022-11-17T18:32:45.639Z,25.20
2022-11-17T18:35:12.221Z,27.35
2022-11-17T18:37:38.754Z,20.38
2022-11-17T18:40:05.844Z,22.42
2022-11-17T18:42:32.567Z,24.25
2022-11-17T18:44:59.158Z,27.02
2022-11-17T18:47:25.708Z,26.30
2022-11-17T18:49:52.345Z,27.02
2022-11-17T18:52:19.000Z,21.08
2022-11-17T18:54:45.697Z,27.13
2022-11-17T18:57:12.543Z,22.55
2022-11-17T18:59:39.092Z,18.63
2022-11-17T19:02:05.759Z,26.05
2022-11-17T19:04:32.475Z,22.45
2022-11-17T19:06:59.067Z,25.15
2022-11-17T19:09:25.745Z,21.52
2022-11-17T19:11:52.802Z,24.73
2022-11-17T19:14:19.361Z,22.83
2022-11-17T19:16:45.996Z,23.13
2022-11-17T19:19:13.475Z,24.48
2022-11-17T19:21:40.536Z,21.13
2022-11-17T19:24:07.614Z,25.00
2022-11-17T19:26:35.839Z,27.35
2022-11-17T19:29:05.356Z,26.00
2022-11-17T19:31:33.034Z,20.13
2022-11-17T19:33:59.743Z,21.83
2022-11-17T19:36:29.390Z,25.52
2022-11-17T19:38:57.973Z,24.48
2022-11-17T19:41:26.673Z,27.90
2022-11-17T19:46:20.634Z,24.13
2022-11-17T19:48:47.277Z,21.95
2022-11-17T19:51:19.906Z,20.60
2022-11-17T19:53:52.389Z,22.85
2022-11-17T19:56:19.521Z,29.38
2022-11-17T19:58:46.751Z,31.25
2022-11-17T20:01:15.758Z,27.02
2022-11-17T20:03:42.979Z,23.50
2022-11-17T20:06:11.396Z,30.00
2022-11-17T20:08:38.172Z,26.85
2022-11-17T20:11:07.115Z,22.73
2022-11-17T20:13:34.138Z,28.67
2022-11-17T20:16:05.190Z,28.95
2022-11-17T20:18:35.542Z,26.73
2022-11-17T20:21:08.031Z,25.35
2022-11-17T20:23:35.407Z,23.00
2022-11-17T20:26:12.714Z,24.15
2022-11-17T20:28:39.319Z,32.35
2022-11-17T20:31:10.416Z,22.95
2022-11-17T20:33:41.534Z,29.17
2022-11-17T20:36:09.758Z,27.60
2022-11-17T20:38:36.533Z,26.42
2022-11-17T20:41:03.835Z,31.60
2022-11-17T20:43:32.869Z,25.77
2022-11-17T20:45:59.580Z,31.20
2022-11-17T20:48:27.631Z,28.10
2022-11-17T20:50:58.250Z,26.00
2022-11-17T20:53:25.229Z,23.70
2022-11-17T20:55:51.930Z,23.85
2022-11-17T20:58:18.551Z,29.00
2022-11-17T21:00:45.227Z,23.85
2022-11-17T21:03:11.837Z,24.15
2022-11-17T21:05:38.408Z,30.35
2022-11-17T21:08:05.298Z,23.35
2022-11-17T21:10:31.984Z,27.63
2022-11-17T21:12:58.838Z,27.55
2022-11-17T21:15:25.502Z,32.72
2022-11-17T21:18:10.273Z,24.00
2022-11-17T21:20:36.777Z,24.52
2022-11-17T21:23:03.350Z,28.90
2022-11-17T21:25:29.859Z,23.85
2022-11-17T21:27:56.670Z,33.58
2022-11-17T21:30:23.187Z,24.85
2022-11-17T21:32:49.745Z,25.05
2022-11-17T21:35:16.227Z,31.80
2022-11-17T21:37:42.717Z,30.02
2022-11-17T21:40:09.610Z,26.55
2022-11-17T21:42:36.399Z,31.58
2022-11-17T21:45:03.007Z,32.45
2022-11-17T21:47:29.534Z,27.05
2022-11-17T21:49:56.058Z,24.92
2022-11-17T21:52:22.680Z,26.00
2022-11-17T21:54:49.162Z,29.15
2022-11-17T21:57:15.707Z,30.25
2022-11-17T21:59:42.204Z,23.33
2022-11-17T22:02:09.919Z,27.63
2022-11-17T22:04:36.465Z,27.73
2022-11-17T22:07:03.069Z,29.90
2022-11-17T22:09:29.623Z,28.05
2022-11-17T22:11:56.324Z,31.85
2022-11-17T22:14:22.991Z,31.60
2022-11-17T22:16:53.611Z,33.38
2022-11-17T22:19:21.859Z,32.08
2022-11-17T22:21:50.096Z,34.55
2022-11-17T22:24:17.178Z,31.90
2022-11-17T22:26:44.345Z,35.63
